Time;durP1;ratioP1;P1;durP2;ratioP2;P2;SDS_P1;SDS_P2;PMS_P1;PMS_P2;Temp;Humidity;BMP_temperature;BMP_pressure;BME280_temperature;BME280_humidity;BME280_pressure;Samples;Min_cycle;Max_cycle;Signal;HPM_P1;HPM_P2
2024/03/31 00:00:02;;;;;;;15.32;13.73;;;;;;;10.73;100.00;99847.91;5247258;28;20045;-79
2024/03/31 00:02:34;;;;;;;13.75;12.35;;;;;;;10.78;100.00;99855.28;5246723;28;20467;-79
2024/03/31 00:05:06;;;;;;;14.90;12.23;;;;;;;10.70;100.00;99835.13;5246669;28;20037;-79
2024/03/31 00:07:38;;;;;;;13.93;12.53;;;;;;;10.77;100.00;99837.94;5246517;28;20025;-79
2024/03/31 00:10:10;;;;;;;13.95;12.55;;;;;;;10.73;100.00;99842.66;5246631;28;20394;-79
2024/03/31 00:12:44;;;;;;;13.95;12.45;;;;;;;10.74;100.00;99835.63;5246383;28;20035;-78
2024/03/31 00:15:15;;;;;;;;;;;;;;;11.52;100.00;99830.19;5247669;28;20037;-79
2024/03/31 00:17:50;;;;;;;13.77;12.35;;;;;;;10.78;100.00;99813.38;5244892;28;20725;-79
2024/03/31 00:20:21;;;;;;;13.23;11.57;;;;;;;10.70;100.00;99824.63;5243849;28;20044;-79
2024/03/31 00:22:53;;;;;;;13.00;11.70;;;;;;;10.62;100.00;99817.56;5243690;28;20044;-79
2024/03/31 00:25:25;;;;;;;14.77;12.50;;;;;;;10.57;100.00;99804.13;5245095;28;20499;-78
2024/03/31 00:27:57;;;;;;;16.30;13.43;;;;;;;10.50;100.00;99807.50;5244241;28;20029;-79
2024/03/31 00:30:29;;;;;;;13.00;11.70;;;;;;;10.48;100.00;99813.72;5245411;28;20033;-79
2024/03/31 00:33:01;;;;;;;13.60;12.23;;;;;;;10.52;100.00;99805.53;5246886;28;20038;-78
2024/03/31 00:35:33;;;;;;;14.05;12.65;;;;;;;10.42;100.00;99808.28;5246742;28;20501;-79
2024/03/31 00:38:05;;;;;;;13.15;11.85;;;;;;;10.37;100.00;99813.16;5244197;28;20037;-79
2024/03/31 00:40:37;;;;;;;14.00;12.60;;;;;;;10.35;100.00;99807.25;5245693;28;20029;-79
2024/03/31 00:43:09;;;;;;;13.60;12.30;;;;;;;10.38;100.00;99820.00;5246308;28;20033;-79
2024/03/31 00:45:41;;;;;;;15.18;13.63;;;;;;;10.33;100.00;99823.09;5243578;28;20521;-79
2024/03/31 00:48:13;;;;;;;14.07;12.68;;;;;;;10.31;100.00;99825.06;5244237;28;20040;-78
2024/03/31 00:50:45;;;;;;;13.85;12.45;;;;;;;10.26;100.00;99832.53;5239095;28;20036;-79
2024/03/31 00:53:17;;;;;;;13.40;12.00;;;;;;;10.29;100.00;99824.38;5220118;28;20044;-78
2024/03/31 00:55:49;;;;;;;14.88;13.23;;;;;;;10.19;100.00;99816.63;5242325;28;20041;-79
2024/03/31 00:58:21;;;;;;;14.05;12.65;;;;;;;10.20;100.00;99820.88;5245031;28;20028;-79
2024/03/31 01:00:53;;;;;;;14.50;13.00;;;;;;;10.19;100.00;99816.63;5242953;28;20041;-78
2024/03/31 01:03:28;;;;;;;14.57;13.05;;;;;;;10.30;100.00;99833.88;5245352;28;20032;-79
2024/03/31 01:06:08;;;;;;;14.63;13.13;;;;;;;10.25;100.00;99841.38;5244766;28;20048;-79
2024/03/31 01:08:40;;;;;;;14.50;13.00;;;;;;;10.17;100.00;99841.28;5241224;28;20039;-79
2024/03/31 01:11:12;;;;;;;14.43;13.02;;;;;;;10.09;100.00;99838.59;5242531;28;20467;-78
2024/03/31 01:13:49;;;;;;;14.32;12.85;;;;;;;10.28;100.00;99856.78;5244913;28;20037;-78
2024/03/31 01:16:20;;;;;;;14.18;12.68;;;;;;;10.15;100.00;99851.06;5245043;28;20036;-78
2024/03/31 01:18:52;;;;;;;13.18;11.77;;;;;;;10.14;100.00;99859.91;5243182;28;20040;-79
2024/03/31 01:21:27;;;;;;;13.48;12.18;;;;;;;10.19;100.00;99860.25;5245585;28;20044;-78
2024/03/31 01:23:59;;;;;;;15.18;13.10;;;;;;;10.17;100.00;99867.47;5244990;28;20489;-78
2024/03/31 01:26:31;;;;;;;13.68;12.27;;;;;;;10.20;100.00;99865.38;5243253;28;20041;-78
2024/03/31 01:29:03;;;;;;;14.25;12.75;;;;;;;10.19;100.00;99849.78;5243587;28;20033;-78
2024/03/31 01:31:35;;;;;;;13.98;12.57;;;;;;;10.24;100.00;99844.94;5243767;28;20219;-78
2024/03/31 01:34:07;;;;;;;13.88;12.57;;;;;;;10.28;100.00;99835.03;5243697;28;20345;-78
2024/03/31 01:36:39;;;;;;;14.23;12.82;;;;;;;10.26;100.00;99827.31;5243107;28;20123;-78
2024/03/31 01:39:13;;;;;;;14.88;13.38;;;;;;;10.27;100.00;99812.44;5244917;28;21058;-78
2024/03/31 01:41:48;;;;;;;14.32;12.85;;;;;;;10.32;100.00;99812.78;5244598;28;20036;-78
2024/03/31 01:44:20;;;;;;;14.68;13.27;;;;;;;10.21;100.00;99808.59;5243380;28;20052;-78
2024/03/31 01:46:52;;;;;;;14.63;13.30;;;;;;;10.23;100.00;99812.72;5244192;28;20029;-78
2024/03/31 01:49:24;;;;;;;13.70;12.27;;;;;;;10.22;100.00;99825.94;5240715;28;20044;-78
2024/03/31 01:51:56;;;;;;;14.18;12.82;;;;;;;10.21;100.00;99830.34;5242354;28;20044;-79
2024/03/31 01:54:28;;;;;;;14.65;13.15;;;;;;;10.12;100.00;99814.75;5243228;28;20028;-78
2024/03/31 01:57:00;;;;;;;14.05;12.65;;;;;;;10.23;100.00;99811.91;5243832;28;20756;-79
2024/03/31 01:59:32;;;;;;;14.48;13.02;;;;;;;10.23;100.00;99830.22;5244151;28;20031;-78
2024/03/31 02:02:04;;;;;;;13.93;12.52;;;;;;;10.23;100.00;99827.59;5241801;28;20211;-78
2024/03/31 02:04:35;;;;;;;14.30;12.90;;;;;;;10.25;100.00;99841.38;5243429;28;20037;-78
2024/03/31 02:07:07;;;;;;;14.30;12.80;;;;;;;10.21;100.00;99846.06;5237643;28;20501;-79
2024/03/31 02:09:39;;;;;;;14.45;13.05;;;;;;;10.21;100.00;99850.47;5243377;28;20036;-78
2024/03/31 02:12:11;;;;;;;14.13;12.73;;;;;;;10.16;100.00;99840.47;5241003;28;20033;-79
2024/03/31 02:14:43;;;;;;;14.00;12.57;;;;;;;10.17;100.00;99844.72;5223844;28;20044;-78
2024/03/31 02:17:15;;;;;;;12.80;11.60;;;;;;;10.17;100.00;99823.78;5244304;28;20040;-79
2024/03/31 02:19:47;;;;;;;13.38;12.07;;;;;;;10.18;100.00;99824.59;5243839;28;20032;-78
2024/03/31 02:22:19;;;;;;;13.73;12.40;;;;;;;10.18;100.00;99817.56;5242113;28;20490;-78
2024/03/31 02:24:51;;;;;;;13.68;11.93;;;;;;;10.11;100.00;99803.44;5242209;28;20029;-78
2024/03/31 02:27:23;;;;;;;13.38;12.05;;;;;;;10.12;100.00;99809.53;5243557;28;20060;-78
2024/03/31 02:29:55;;;;;;;13.35;12.05;;;;;;;10.08;100.00;99805.56;5243874;28;20470;-78
2024/03/31 02:32:27;;;;;;;13.63;12.23;;;;;;;10.09;100.00;99815.06;5239901;28;20052;-78
2024/03/31 02:34:59;;;;;;;13.23;11.73;;;;;;;10.03;100.00;99807.81;5242946;28;20032;-79
2024/03/31 02:37:31;;;;;;;13.38;12.07;;;;;;;10.10;100.00;99816.69;5243309;28;20430;-78
2024/03/31 02:40:03;;;;;;;12.50;11.27;;;;;;;10.06;100.00;99821.41;5240591;28;20289;-78
2024/03/31 02:42:35;;;;;;;13.10;11.80;;;;;;;10.05;100.00;99821.56;5243134;28;20025;-78
2024/03/31 02:45:07;;;;;;;12.75;11.55;;;;;;;10.02;100.00;99814.84;5242330;28;20041;-78
2024/03/31 02:47:39;;;;;;;12.18;10.90;;;;;;;9.97;100.00;99807.44;5240291;28;20048;-78
2024/03/31 02:50:11;;;;;;;13.02;11.75;;;;;;;10.02;100.00;99808.78;5242002;28;20527;-78
2024/03/31 02:52:43;;;;;;;13.18;11.90;;;;;;;10.03;100.00;99799.94;5244487;28;20037;-78
2024/03/31 02:55:15;;;;;;;13.73;12.27;;;;;;;10.01;100.00;99789.66;5242027;28;20040;-78
2024/03/31 02:57:47;;;;;;;14.35;12.95;;;;;;;10.04;100.00;99781.50;5242247;28;20509;-78
2024/03/31 03:00:19;;;;;;;14.13;12.73;;;;;;;10.09;100.00;99781.03;5240226;28;20491;-78
2024/03/31 03:02:51;;;;;;;14.55;13.05;;;;;;;10.10;100.00;99780.06;5242865;28;20039;-78
2024/03/31 03:05:23;;;;;;;14.13;12.80;;;;;;;10.09;100.00;99770.56;5242586;28;20048;-78
2024/03/31 03:07:54;;;;;;;14.15;12.75;;;;;;;10.06;100.00;99773.50;5241471;28;20398;-79
2024/03/31 03:10:26;;;;;;;13.35;12.10;;;;;;;10.03;100.00;99758.09;5241930;28;20308;-78
2024/03/31 03:12:59;;;;;;;13.60;12.18;;;;;;;10.07;100.00;99749.78;5241997;28;20040;-78
2024/03/31 03:15:31;;;;;;;14.80;13.02;;;;;;;10.04;100.00;99718.69;5242107;28;20031;-79
2024/03/31 03:18:03;;;;;;;13.75;12.45;;;;;;;10.13;100.00;99737.88;5241056;28;20284;-78
2024/03/31 03:20:37;;;;;;;13.63;12.32;;;;;;;10.17;100.00;99739.22;5242438;28;20043;-78
2024/03/31 03:23:09;;;;;;;13.95;12.55;;;;;;;10.15;100.00;99749.00;5241439;28;20029;-78
2024/03/31 03:25:40;;;;;;;13.98;12.55;;;;;;;10.16;100.00;99763.75;5224587;28;20056;-78
2024/03/31 03:28:12;;;;;;;14.52;13.13;;;;;;;10.10;100.00;99752.09;5238063;28;20444;-78
2024/03/31 03:30:45;;;;;;;13.27;11.90;;;;;;;10.18;100.00;99757.38;5243075;28;20072;-79
2024/03/31 03:33:17;;;;;;;14.48;12.98;;;;;;;10.22;100.00;99765.72;5243609;28;20913;-78
2024/03/31 03:35:49;;;;;;;14.23;12.73;;;;;;;10.20;100.00;99762.47;5242024;28;20050;-79
2024/03/31 03:38:21;;;;;;;14.88;13.30;;;;;;;10.17;100.00;99765.38;5241932;28;20178;-78
2024/03/31 03:40:53;;;;;;;14.52;13.02;;;;;;;10.24;100.00;99785.56;5242439;28;20455;-79
2024/03/31 03:43:26;;;;;;;15.20;13.57;;;;;;;10.25;100.00;99789.03;5240952;28;20033;-78
2024/03/31 03:45:58;;;;;;;15.85;13.18;;;;;;;10.32;100.00;99784.81;5242957;28;20418;-79
2024/03/31 03:48:29;;;;;;;15.57;13.00;;;;;;;10.28;100.00;99777.44;5240789;28;20068;-79
2024/03/31 03:51:02;;;;;;;15.23;13.73;;;;;;;10.30;100.00;99783.31;5240125;28;20032;-78
2024/03/31 03:53:34;;;;;;;15.00;13.40;;;;;;;10.33;100.00;99781.22;5240435;28;20033;-79
2024/03/31 03:56:06;;;;;;;13.65;12.13;;;;;;;10.30;100.00;99765.00;5243373;28;20032;-79
2024/03/31 03:58:38;;;;;;;13.35;11.95;;;;;;;10.32;100.00;99763.88;5241037;28;20501;-79
2024/03/31 04:01:10;;;;;;;13.88;12.38;;;;;;;10.31;100.00;99756.19;5239226;28;20126;-78
2024/03/31 04:03:42;;;;;;;14.02;11.15;;;;;;;10.24;100.00;99745.47;5242845;28;20044;-79
2024/03/31 04:06:13;;;;;;;12.52;11.10;;;;;;;10.22;100.00;99734.31;5241558;28;20391;-78
2024/03/31 04:08:45;;;;;;;13.23;11.40;;;;;;;10.32;100.00;99752.59;5241173;28;20037;-78
2024/03/31 04:11:24;;;;;;;12.77;11.05;;;;;;;10.45;100.00;99761.66;5241179;28;20035;-78
2024/03/31 04:13:56;;;;;;;12.98;11.57;;;;;;;10.34;100.00;99754.06;5246008;28;20029;-78
2024/03/31 04:16:28;;;;;;;12.20;10.90;;;;;;;10.34;100.00;99756.69;5245581;28;20407;-78
2024/03/31 04:19:00;;;;;;;12.18;10.75;;;;;;;10.33;100.00;99746.38;5244383;28;20037;-78
2024/03/31 04:21:32;;;;;;;12.45;11.15;;;;;;;10.28;100.00;99731.13;5245360;28;20028;-78
2024/03/31 04:24:04;;;;;;;13.15;11.73;;;;;;;10.22;100.00;99722.06;5245486;28;20795;-79
2024/03/31 04:26:35;;;;;;;12.63;11.13;;;;;;;10.15;100.00;99707.13;5245376;28;20045;-78
2024/03/31 04:29:07;;;;;;;13.18;11.77;;;;;;;10.24;100.00;99722.72;5245877;28;20033;-78
2024/03/31 04:31:54;;;;;;;12.70;10.95;;;;;;;10.47;100.00;99717.81;5244870;28;20037;-78
2024/03/31 04:34:28;;;;;;;13.55;11.18;;;;;;;10.20;100.00;99715.34;5226155;28;20045;-78
2024/03/31 04:37:00;;;;;;;13.77;11.80;;;;;;;10.29;100.00;99718.84;5244983;28;20043;-79
2024/03/31 04:39:32;;;;;;;12.32;10.95;;;;;;;10.32;100.00;99710.69;5244304;28;20740;-79
2024/03/31 04:42:04;;;;;;;12.60;11.30;;;;;;;10.23;100.00;99694.09;5245401;28;20505;-79
2024/03/31 04:44:36;;;;;;;12.20;10.90;;;;;;;10.24;100.00;99695.75;5245631;28;20517;-79
2024/03/31 04:47:08;;;;;;;13.35;11.52;;;;;;;10.18;100.00;99678.03;5245386;28;20048;-79
2024/03/31 04:49:42;;;;;;;14.10;11.70;;;;;;;10.19;100.00;99682.28;5245017;28;20044;-79
2024/03/31 04:52:14;;;;;;;13.27;11.23;;;;;;;10.23;100.00;99681.03;5246144;28;20040;-79
2024/03/31 04:54:46;;;;;;;12.60;11.30;;;;;;;10.24;100.00;99672.19;5243686;28;20509;-80
2024/03/31 04:57:18;;;;;;;13.98;11.32;;;;;;;10.17;100.00;99663.31;5245689;28;20372;-78
2024/03/31 04:59:50;;;;;;;12.85;11.55;;;;;;;10.24;100.00;99667.75;5243379;28;20036;-79
2024/03/31 05:02:22;;;;;;;12.75;11.45;;;;;;;10.24;100.00;99686.09;5243786;28;20036;-80
2024/03/31 05:04:54;;;;;;;12.05;10.85;;;;;;;10.26;100.00;99679.91;5244669;28;20467;-80
2024/03/31 05:07:26;;;;;;;13.20;11.75;;;;;;;10.22;100.00;99689.81;5243931;28;20296;-80
2024/03/31 05:09:58;;;;;;;13.15;11.68;;;;;;;10.28;100.00;99699.72;5243879;28;20029;-80
2024/03/31 05:12:30;;;;;;;12.75;10.98;;;;;;;10.30;100.00;99702.16;5244924;28;20520;-79
2024/03/31 05:15:02;;;;;;;13.98;12.10;;;;;;;10.24;100.00;99691.31;5244778;28;20025;-78
2024/03/31 05:17:34;;;;;;;13.27;11.95;;;;;;;10.30;100.00;99708.22;5245568;28;20041;-80
2024/03/31 05:20:07;;;;;;;13.52;11.57;;;;;;;10.28;100.00;99699.72;5244469;28;20407;-80
2024/03/31 05:22:39;;;;;;;13.57;12.18;;;;;;;10.30;100.00;99694.31;5245249;28;20277;-79
2024/03/31 05:25:10;;;;;;;13.85;12.35;;;;;;;10.24;100.00;99693.13;5243353;28;20044;-78
2024/03/31 05:27:42;;;;;;;15.15;12.95;;;;;;;10.26;100.00;99691.19;5245360;28;20056;-78
2024/03/31 05:30:14;;;;;;;14.98;12.70;;;;;;;10.26;100.00;99690.38;5246546;28;20044;-79
2024/03/31 05:32:46;;;;;;;15.85;13.63;;;;;;;10.26;100.00;99687.75;5246500;28;20132;-80
2024/03/31 05:35:18;;;;;;;15.25;13.57;;;;;;;10.26;100.00;99691.19;5245625;28;20029;-79
2024/03/31 05:37:50;;;;;;;15.80;13.95;;;;;;;10.24;100.00;99687.88;5244716;28;20047;-79
2024/03/31 05:40:22;;;;;;;15.77;13.88;;;;;;;10.16;100.00;99686.06;5243443;28;20036;-80
2024/03/31 05:42:54;;;;;;;16.45;14.65;;;;;;;10.27;100.00;99697.25;5244783;28;20494;-80
2024/03/31 05:45:26;;;;;;;16.58;14.77;;;;;;;10.21;100.00;99672.50;5244637;28;20053;-79
2024/03/31 05:47:58;;;;;;;18.02;15.38;;;;;;;10.32;100.00;99681.91;5243837;28;20032;-80
2024/03/31 05:50:29;;;;;;;16.85;15.05;;;;;;;10.32;100.00;99674.03;5244126;28;20055;-79
2024/03/31 05:53:02;;;;;;;17.00;15.07;;;;;;;10.33;100.00;99676.50;5246412;28;20193;-79
2024/03/31 05:55:34;;;;;;;17.05;15.20;;;;;;;10.32;100.00;99669.63;5242628;28;20045;-79
2024/03/31 05:58:06;;;;;;;19.17;16.00;;;;;;;10.34;100.00;99675.53;5240470;28;20444;-79
2024/03/31 06:00:39;;;;;;;19.65;16.10;;;;;;;10.37;100.00;99671.75;5244450;28;20062;-78
2024/03/31 06:03:11;;;;;;;;;;;;;;;11.04;100.00;99680.47;5249079;28;20039;-78
2024/03/31 06:05:43;;;;;;;17.05;15.25;;;;;;;10.55;100.00;99674.28;5249364;28;20297;-78
2024/03/31 06:08:15;;;;;;;18.73;16.73;;;;;;;10.55;100.00;99666.44;5246625;28;20029;-78
2024/03/31 06:10:47;;;;;;;18.67;16.05;;;;;;;10.61;100.00;99673.66;5248259;28;20039;-78
2024/03/31 06:13:18;;;;;;;19.98;17.23;;;;;;;10.53;100.00;99650.06;5247241;28;20033;-78
2024/03/31 06:15:50;;;;;;;18.73;16.73;;;;;;;10.63;100.00;99679.56;5247928;28;20045;-77
2024/03/31 06:18:22;;;;;;;19.15;17.08;;;;;;;10.63;100.00;99669.09;5243670;28;20189;-77
2024/03/31 06:20:54;;;;;;;19.55;17.40;;;;;;;10.62;100.00;99670.88;5246970;28;20041;-78
2024/03/31 06:23:26;;;;;;;19.88;16.58;;;;;;;10.63;100.00;99661.22;5248919;28;20143;-78
2024/03/31 06:25:59;;;;;;;18.83;16.77;;;;;;;10.57;100.00;99651.38;5249117;28;20032;-77
2024/03/31 06:28:30;;;;;;;18.70;16.80;;;;;;;10.67;100.00;99652.06;5249728;28;20265;-78
2024/03/31 06:31:07;;;;;;;18.27;16.30;;;;;;;10.75;100.00;99656.50;5251060;28;20299;-78
2024/03/31 06:33:41;;;;;;;19.92;17.85;;;;;;;10.69;100.00;99655.34;5249780;28;20501;-78
2024/03/31 06:36:13;;;;;;;20.38;18.05;;;;;;;10.74;100.00;99660.94;5246548;28;20029;-77
2024/03/31 06:38:45;;;;;;;20.88;18.73;;;;;;;10.76;100.00;99658.97;5242916;28;20036;-77
2024/03/31 06:41:18;;;;;;;19.52;17.42;;;;;;;10.78;100.00;99659.63;5248301;28;20029;-78
2024/03/31 06:43:49;;;;;;;19.52;17.45;;;;;;;10.82;100.00;99655.69;5247426;28;20068;-78
2024/03/31 06:46:21;;;;;;;19.42;17.42;;;;;;;10.82;100.00;99655.69;5249013;28;20033;-78
2024/03/31 06:48:53;;;;;;;20.77;18.58;;;;;;;10.85;100.00;99660.63;5228142;28;20281;-78
2024/03/31 06:51:25;;;;;;;19.45;17.20;;;;;;;10.83;100.00;99665.19;5245704;28;20029;-78
2024/03/31 06:53:57;;;;;;;19.02;17.02;;;;;;;10.84;100.00;99661.63;5246643;28;20036;-78
2024/03/31 06:56:29;;;;;;;19.05;17.05;;;;;;;10.88;100.00;99662.13;5243806;28;20028;-78
2024/03/31 06:59:01;;;;;;;19.48;17.48;;;;;;;10.92;100.00;99664.25;5244203;28;20040;-77
2024/03/31 07:01:34;;;;;;;18.42;16.52;;;;;;;11.01;100.00;99661.63;5248278;28;20048;-77
2024/03/31 07:04:06;;;;;;;19.88;16.45;;;;;;;10.98;100.00;99651.47;5246897;28;20528;-78
2024/03/31 07:06:38;;;;;;;19.83;16.70;;;;;;;11.03;100.00;99647.41;5250447;28;20037;-77
2024/03/31 07:09:10;;;;;;;19.90;17.73;;;;;;;11.19;100.00;99657.88;5251064;28;20025;-78
2024/03/31 07:11:42;;;;;;;19.85;17.70;;;;;;;11.05;100.00;99607.91;5231237;28;20702;-78
2024/03/31 07:14:14;;;;;;;18.90;16.90;;;;;;;11.53;100.00;99656.09;5245688;28;20025;-78
2024/03/31 07:16:46;;;;;;;20.08;16.75;;;;;;;11.58;100.00;99653.78;5244308;28;20036;-78
2024/03/31 07:19:18;;;;;;;18.95;16.50;;;;;;;11.56;100.00;99648.72;5244241;28;20039;-81
2024/03/31 07:21:50;;;;;;;18.80;16.13;;;;;;;11.61;100.00;99659.50;5241258;28;20483;-77
2024/03/31 07:24:22;;;;;;;17.83;15.93;;;;;;;11.64;100.00;99661.81;5246565;28;20029;-77
2024/03/31 07:26:54;;;;;;;17.83;15.77;;;;;;;11.64;100.00;99655.75;5246275;28;20043;-77
2024/03/31 07:29:26;;;;;;;19.20;15.88;;;;;;;11.63;100.00;99636.56;5245072;28;20037;-78
2024/03/31 07:31:57;;;;;;;18.00;14.95;;;;;;;11.79;100.00;99661.94;5243789;28;20035;-77
2024/03/31 07:34:29;;;;;;;17.90;15.52;;;;;;;11.83;100.00;99646.69;5244492;28;20701;-77
2024/03/31 07:37:01;;;;;;;17.10;15.32;;;;;;;11.95;100.00;99634.88;5241032;28;20103;-77
2024/03/31 07:39:35;;;;;;;17.00;14.55;;;;;;;11.99;100.00;99636.19;5241489;28;20033;-77
2024/03/31 07:42:08;;;;;;;16.92;14.63;;;;;;;12.00;100.00;99629.94;5241877;28;20036;-77
2024/03/31 07:44:40;;;;;;;16.83;14.02;;;;;;;12.07;100.00;99644.03;5243223;28;20049;-77
2024/03/31 07:47:12;;;;;;;17.30;15.02;;;;;;;12.22;100.00;99641.50;5245782;28;20032;-76
2024/03/31 07:49:44;;;;;;;15.60;14.00;;;;;;;12.27;100.00;99635.75;5246019;28;20203;-77
2024/03/31 07:52:16;;;;;;;15.35;13.20;;;;;;;12.36;100.00;99640.81;5245052;28;20028;-77
2024/03/31 07:54:48;;;;;;;16.90;12.57;;;;;;;12.44;100.00;99637.31;5247823;28;20483;-77
2024/03/31 07:57:21;;;;;;;14.55;12.68;;;;;;;12.46;100.00;99637.94;5248629;28;20132;-78
2024/03/31 07:59:53;;;;;;;16.02;12.85;;;;;;;12.55;100.00;99636.13;5248125;28;20075;-77
2024/03/31 08:02:25;;;;;;;15.18;12.98;;;;;;;12.59;100.00;99629.53;5249863;28;20039;-78
2024/03/31 08:04:57;;;;;;;17.15;12.93;;;;;;;12.73;100.00;99631.41;5247257;28;20032;-77
2024/03/31 08:07:29;;;;;;;14.38;12.27;;;;;;;12.87;100.00;99629.84;5246773;28;20587;-77
2024/03/31 08:10:03;;;;;;;14.82;11.95;;;;;;;12.96;100.00;99628.00;5245671;28;20266;-77
2024/03/31 08:12:35;;;;;;;12.60;10.88;;;;;;;12.90;100.00;99629.50;5245630;28;20474;-77
2024/03/31 08:15:07;;;;;;;12.70;10.85;;;;;;;12.95;100.00;99628.97;5247946;28;20255;-77
2024/03/31 08:17:38;;;;;;;14.20;10.15;;;;;;;12.98;100.00;99631.25;5247132;28;20032;-78
2024/03/31 08:20:10;;;;;;;17.17;10.98;;;;;;;13.07;100.00;99627.59;5249752;28;20036;-77
2024/03/31 08:22:42;;;;;;;12.27;10.88;;;;;;;13.15;100.00;99630.97;5250033;28;20458;-77
2024/03/31 08:25:14;;;;;;;13.05;9.90;;;;;;;13.17;100.00;99628.13;5250360;28;20289;-77
2024/03/31 08:27:46;;;;;;;12.93;9.98;;;;;;;13.27;100.00;99628.75;5247386;28;20044;-77
2024/03/31 08:30:18;;;;;;;12.77;9.20;;;;;;;13.25;100.00;99630.72;5248323;28;20037;-78
2024/03/31 08:32:50;;;;;;;10.95;9.45;;;;;;;13.29;100.00;99633.81;5249392;28;20049;-78
2024/03/31 08:35:22;;;;;;;12.95;9.73;;;;;;;13.48;100.00;99635.13;5250126;28;20478;-77
2024/03/31 08:37:55;;;;;;;11.80;9.10;;;;;;;13.61;100.00;99619.56;5249999;28;20037;-78
2024/03/31 08:40:31;;;;;;;11.18;8.77;;;;;;;13.80;100.00;99620.84;5247702;28;20044;-78
2024/03/31 08:43:05;;;;;;;12.30;8.05;;;;;;;13.84;100.00;99609.78;5249904;28;20541;-77
2024/03/31 08:45:37;;;;;;;13.55;8.88;;;;;;;13.97;100.00;99611.75;5249087;28;20048;-78
2024/03/31 08:48:11;;;;;;;11.60;7.85;;;;;;;13.95;100.00;99607.69;5248527;28;20043;-77
2024/03/31 08:50:43;;;;;;;13.35;7.50;;;;;;;14.05;100.00;99605.59;5247666;28;20032;-77
2024/03/31 08:53:17;;;;;;;10.07;6.47;;;;;;;14.12;100.00;99606.50;5249018;28;20044;-77
2024/03/31 08:55:49;;;;;;;9.30;6.28;;;;;;;14.25;100.00;99608.50;5248631;28;20029;-78
2024/03/31 08:58:20;;;;;;;8.27;5.57;;;;;;;14.48;100.00;99608.34;5248830;28;20045;-78
2024/03/31 09:00:55;;;;;;;11.30;5.05;;;;;;;14.54;100.00;99610.25;5249165;28;20041;-77
2024/03/31 09:03:27;;;;;;;9.50;4.63;;;;;;;14.67;100.00;99601.69;5250625;28;20040;-77
2024/03/31 09:05:58;;;;;;;13.20;4.82;;;;;;;14.75;100.00;99591.84;5248616;28;20449;-78
2024/03/31 09:08:30;;;;;;;7.05;3.90;;;;;;;14.99;100.00;99588.00;5249073;28;20035;-77
2024/03/31 09:11:03;;;;;;;8.65;4.05;;;;;;;15.16;100.00;99593.84;5247551;28;20033;-77
2024/03/31 09:13:35;;;;;;;9.77;3.80;;;;;;;15.19;100.00;99588.19;5249455;28;20501;-78
2024/03/31 09:16:07;;;;;;;8.70;3.90;;;;;;;15.30;100.00;99584.19;5250051;28;20041;-78
2024/03/31 09:18:39;;;;;;;7.78;3.40;;;;;;;15.40;100.00;99583.88;5249029;28;20033;-78
2024/03/31 09:21:10;;;;;;;7.22;3.17;;;;;;;15.47;100.00;99582.09;5230507;28;20379;-77
2024/03/31 09:23:42;;;;;;;9.35;3.15;;;;;;;15.65;100.00;99579.81;5248935;28;20028;-77
2024/03/31 09:26:14;;;;;;;5.55;3.03;;;;;;;15.80;100.00;99580.50;5250488;28;20033;-78
2024/03/31 09:28:46;;;;;;;8.50;2.92;;;;;;;15.90;100.00;99580.13;5248659;28;20680;-78
2024/03/31 09:31:21;;;;;;;5.82;2.53;;;;;;;16.08;100.00;99571.69;5250060;28;20445;-78
2024/03/31 09:33:53;;;;;;;7.90;2.80;;;;;;;16.18;99.28;99582.72;5250809;28;20474;-78
2024/03/31 09:36:25;;;;;;;8.52;2.85;;;;;;;16.20;90.38;99583.31;5249587;28;20043;-78
2024/03/31 09:38:57;;;;;;;7.43;2.90;;;;;;;16.43;92.89;99580.34;5250321;28;20106;-78
2024/03/31 09:41:30;;;;;;;6.28;2.13;;;;;;;16.57;88.76;99570.63;5251938;28;20032;-78
2024/03/31 09:44:03;;;;;;;;;;;;;;;17.35;86.78;99575.38;5253472;28;20140;-78
2024/03/31 09:46:34;;;;;;;10.13;2.10;;;;;;;16.91;82.28;99582.91;5250515;28;19924;-78
2024/03/31 09:49:12;;;;;;;9.02;2.97;;;;;;;17.00;80.89;99579.06;5231627;28;20036;-78
2024/03/31 09:51:47;;;;;;;7.68;2.00;;;;;;;16.88;78.95;99582.50;5251824;28;20037;-78
2024/03/31 09:54:22;;;;;;;6.50;1.80;;;;;;;16.92;81.73;99583.72;5252852;28;20037;-78
2024/03/31 09:57:08;;;;;;;7.05;2.17;;;;;;;17.06;82.00;99581.91;5252190;28;20029;-78
2024/03/31 09:59:44;;;;;;;5.97;2.00;;;;;;;16.77;75.80;99576.78;5254488;28;20502;-78
2024/03/31 10:02:16;;;;;;;7.35;2.40;;;;;;;16.90;79.47;99585.78;5252198;28;20055;-78
2024/03/31 10:05:14;;;;;;;9.55;2.50;;;;;;;16.98;79.22;99582.94;5251014;28;20044;-78
2024/03/31 10:07:47;;;;;;;5.38;2.25;;;;;;;17.19;75.00;99579.25;5249170;28;20419;-78
2024/03/31 10:10:21;;;;;;;10.23;2.85;;;;;;;17.13;72.53;99586.19;5253384;28;20041;-78
2024/03/31 10:12:53;;;;;;;6.40;1.80;;;;;;;17.20;74.16;99570.31;5254112;28;20070;-78
2024/03/31 10:15:25;;;;;;;6.38;1.70;;;;;;;17.37;71.64;99581.28;5255437;28;20041;-78
2024/03/31 10:17:59;;;;;;;5.85;1.50;;;;;;;17.44;72.16;99574.97;5252507;28;20032;-78
2024/03/31 10:20:31;;;;;;;5.90;1.77;;;;;;;17.35;71.05;99562.97;5251849;28;20036;-78
2024/03/31 10:23:04;;;;;;;11.57;2.20;;;;;;;17.56;69.45;99572.50;5254696;28;20041;-78
2024/03/31 10:25:36;;;;;;;8.38;2.45;;;;;;;17.73;69.70;99571.06;5255675;28;20044;-78
2024/03/31 10:28:09;;;;;;;6.75;1.85;;;;;;;17.81;68.11;99566.59;5251861;28;20032;-78
2024/03/31 10:30:41;;;;;;;8.35;1.73;;;;;;;17.86;66.89;99564.13;5254671;28;20394;-78
2024/03/31 10:33:13;;;;;;;23.77;3.13;;;;;;;18.12;65.27;99561.38;5253243;28;20111;-78
2024/03/31 10:35:46;;;;;;;5.82;1.60;;;;;;;18.29;63.77;99558.22;5251913;28;20086;-78
2024/03/31 10:38:18;;;;;;;7.47;1.58;;;;;;;18.32;60.76;99561.28;5252983;28;20040;-78
2024/03/31 10:40:51;;;;;;;11.93;1.90;;;;;;;18.09;60.82;99556.47;5255136;28;20107;-78
2024/03/31 10:43:24;;;;;;;5.82;1.75;;;;;;;18.08;61.66;99554.88;5255275;28;20033;-78
2024/03/31 10:45:56;;;;;;;;;;;;;;;18.67;60.09;99555.56;5253941;28;20037;-78
2024/03/31 10:48:28;;;;;;;7.40;1.85;;;;;;;18.28;65.41;99553.97;5255253;28;19991;-78
2024/03/31 10:51:12;;;;;;;6.97;1.67;;;;;;;18.52;64.54;99547.09;5252954;28;20118;-78
2024/03/31 10:53:44;;;;;;;5.95;1.50;;;;;;;18.36;60.98;99537.78;5254282;28;20028;-78
2024/03/31 10:56:24;;;;;;;7.53;1.60;;;;;;;18.58;60.58;99541.75;5253676;28;20048;-78
2024/03/31 10:59:07;;;;;;;7.28;1.50;;;;;;;18.59;58.73;99543.34;5254606;28;20037;-78
2024/03/31 11:01:40;;;;;;;5.65;1.40;;;;;;;18.54;59.48;99542.38;5252152;28;20042;-78
2024/03/31 11:04:18;;;;;;;9.38;1.52;;;;;;;18.70;62.02;99544.53;5253803;28;20028;-78
2024/03/31 11:06:52;;;;;;;8.15;2.05;;;;;;;18.47;58.99;99534.47;5253470;28;20244;-78
2024/03/31 11:09:23;;;;;;;4.20;1.15;;;;;;;18.48;57.91;99530.78;5251425;28;20037;-78
2024/03/31 11:11:57;;;;;;;8.25;1.55;;;;;;;18.48;58.64;99536.91;5253790;28;20079;-78
2024/03/31 11:14:32;;;;;;;8.10;2.10;;;;;;;18.59;58.88;99531.94;5253438;28;20033;-79
2024/03/31 11:17:04;;;;;;;6.05;1.48;;;;;;;18.56;57.82;99517.28;5255079;28;20048;-78
2024/03/31 11:19:37;;;;;;;9.60;2.00;;;;;;;18.66;59.14;99517.59;5256311;28;20029;-78
2024/03/31 11:22:09;;;;;;;;;;;;;;;19.40;57.43;99518.63;5243434;28;20064;-78
2024/03/31 11:24:41;;;;;;;5.75;1.17;;;;;;;18.65;55.36;99520.47;5261627;28;20279;-78
2024/03/31 11:27:14;;;;;;;5.63;1.60;;;;;;;18.61;54.70;99519.28;5258043;28;20243;-78
2024/03/31 11:29:46;;;;;;;4.70;1.30;;;;;;;18.50;55.48;99525.28;5258101;28;20036;-78
2024/03/31 11:32:19;;;;;;;7.18;1.30;;;;;;;18.47;56.62;99521.22;5239319;28;20513;-78
2024/03/31 11:34:51;;;;;;;5.13;1.48;;;;;;;18.27;54.74;99513.38;5257386;28;20044;-78
2024/03/31 11:37:23;;;;;;;4.97;1.38;;;;;;;18.26;56.14;99513.56;5257954;28;20032;-78
2024/03/31 11:39:59;;;;;;;6.18;1.23;;;;;;;18.42;55.65;99531.66;5257053;28;20035;-78